Time;durP1;ratioP1;P1;durP2;ratioP2;P2;SDS_P1;SDS_P2;PMS_P1;PMS_P2;Temp;Humidity;BMP_temperature;BMP_pressure;BME280_temperature;BME280_humidity;BME280_pressure;Samples;Min_cycle;Max_cycle;Signal;HPM_P1;HPM_P2
2023/01/03 00:02:06;;;;;;;15.98;11.97;;;;;;;5.50;65.61;100986.27;1763017;81;21399;-69
2023/01/03 00:04:33;;;;;;;9.88;4.92;;;;;;;5.51;65.58;100984.49;1757226;80;21600;-69
2023/01/03 00:06:59;;;;;;;16.10;13.68;;;;;;;5.52;65.63;100991.42;1760515;81;21019;-69
2023/01/03 00:09:27;;;;;;;14.20;7.47;;;;;;;5.48;65.82;100984.20;1756501;80;21137;-69
2023/01/03 00:14:41;;;;;;;10.57;6.27;;;;;;;5.42;65.88;100987.58;1757277;80;21078;-69
2023/01/03 00:17:09;;;;;;;15.10;12.82;;;;;;;5.35;65.85;100987.86;1764928;81;21148;-69
2023/01/03 00:19:42;;;;;;;16.90;13.88;;;;;;;5.29;65.92;100982.09;1765226;80;21318;-69
2023/01/03 00:22:10;;;;;;;18.27;13.08;;;;;;;5.25;66.06;100979.26;1760444;80;21062;-69
2023/01/03 00:24:37;;;;;;;15.23;12.35;;;;;;;5.21;66.01;100985.06;1764885;80;21585;-68
2023/01/03 00:27:03;;;;;;;15.85;11.78;;;;;;;5.27;66.01;100987.38;1710755;83;21058;-68
2023/01/03 00:29:30;;;;;;;16.35;12.55;;;;;;;5.34;66.24;100984.85;1756506;80;21323;-71
2023/01/03 00:31:57;;;;;;;16.57;12.47;;;;;;;5.38;66.32;100978.58;1751854;80;20996;-69
2023/01/03 00:34:25;;;;;;;15.32;13.08;;;;;;;5.42;66.33;100980.58;1710869;82;21051;-69
2023/01/03 00:36:52;;;;;;;18.27;13.28;;;;;;;5.42;66.33;100972.75;1764721;81;21106;-69
2023/01/03 00:39:20;;;;;;;17.75;13.55;;;;;;;5.39;66.16;100968.98;1744725;80;21680;-69
2023/01/03 00:41:47;;;;;;;11.95;5.75;;;;;;;5.37;66.09;100969.52;1753731;81;21907;-69
2023/01/03 00:44:14;;;;;;;17.50;13.48;;;;;;;5.34;65.98;100965.28;1762824;80;21508;-69
2023/01/03 00:46:41;;;;;;;16.15;12.65;;;;;;;5.26;65.81;100958.75;1752772;80;21091;-69
2023/01/03 00:49:09;;;;;;;11.73;7.65;;;;;;;5.16;65.75;100957.91;1765905;80;21561;-68
2023/01/03 00:51:38;;;;;;;17.87;13.08;;;;;;;5.10;65.71;100951.67;1762410;81;21055;-68
2023/01/03 00:54:05;;;;;;;17.15;12.63;;;;;;;5.11;65.64;100948.59;1752828;81;21169;-69
2023/01/03 00:56:35;;;;;;;16.97;13.00;;;;;;;5.15;65.61;100943.62;1756014;80;21546;-69
2023/01/03 00:59:02;;;;;;;17.87;12.63;;;;;;;5.14;65.62;100942.77;1764173;80;21028;-68
2023/01/03 01:01:33;;;;;;;15.95;12.40;;;;;;;5.10;65.74;100932.10;1743334;81;21122;-68
2023/01/03 01:04:11;;;;;;;10.63;6.00;;;;;;;5.08;65.94;100923.95;1741142;80;21081;-69
2023/01/03 01:06:46;;;;;;;18.55;13.68;;;;;;;5.09;65.98;100925.19;1744788;80;21102;-70
2023/01/03 01:09:16;;;;;;;17.23;12.85;;;;;;;5.07;65.85;100930.11;1742810;80;21113;-70
2023/01/03 01:11:43;;;;;;;15.63;12.85;;;;;;;5.01;65.74;100932.09;1743751;80;21148;-70
2023/01/03 01:14:20;;;;;;;12.20;5.95;;;;;;;4.96;65.74;100924.09;1746417;80;21113;-70
2023/01/03 01:16:59;;;;;;;16.65;13.18;;;;;;;4.88;65.79;100921.86;1746078;82;21003;-70
2023/01/03 01:19:29;;;;;;;16.27;13.20;;;;;;;4.79;65.77;100919.23;1747959;80;21218;-69
2023/01/03 01:21:56;;;;;;;9.00;4.37;;;;;;;4.78;65.85;100913.62;1747553;82;21113;-69
2023/01/03 01:24:23;;;;;;;14.43;12.05;;;;;;;4.82;65.94;100913.88;1746585;80;21070;-69
2023/01/03 01:26:50;;;;;;;15.05;11.93;;;;;;;4.88;66.04;100908.83;1746753;82;21074;-69
2023/01/03 01:29:18;;;;;;;15.23;11.73;;;;;;;4.94;66.02;100903.33;1746203;82;21089;-69
2023/01/03 01:31:46;;;;;;;11.08;6.15;;;;;;;4.97;66.01;100903.15;1746943;80;22117;-70
2023/01/03 01:34:14;;;;;;;13.78;11.28;;;;;;;4.97;66.10;100889.28;1747889;80;21093;-70
2023/01/03 01:36:41;;;;;;;11.20;5.25;;;;;;;4.95;66.01;100884.13;1711388;83;21048;-70
2023/01/03 01:39:13;;;;;;;14.73;11.75;;;;;;;4.93;65.84;100881.23;1734256;82;21149;-69
2023/01/03 01:44:52;;;;;;;14.95;7.30;;;;;;;4.86;65.88;100870.25;1746813;80;21084;-70
2023/01/03 01:47:39;;;;;;;18.15;13.80;;;;;;;4.86;65.85;100868.95;1718798;82;21022;-70
2023/01/03 01:50:23;;;;;;;11.10;5.67;;;;;;;4.80;65.74;100867.92;1725119;80;21316;-68
2023/01/03 01:52:59;;;;;;;14.10;6.80;;;;;;;4.73;65.74;100865.23;1747826;82;21061;-69
2023/01/03 01:55:37;;;;;;;16.48;12.10;;;;;;;4.63;65.91;100854.40;1746522;80;21084;-69
2023/01/03 01:58:04;;;;;;;13.98;12.03;;;;;;;4.58;66.11;100861.13;1712397;83;21047;-69
2023/01/03 02:00:32;;;;;;;10.20;4.45;;;;;;;4.56;66.04;100856.45;1685127;83;20980;-69
2023/01/03 02:02:59;;;;;;;19.20;13.32;;;;;;;4.60;65.87;100853.23;1754107;80;21480;-69
2023/01/03 02:05:26;;;;;;;15.25;11.78;;;;;;;4.60;65.83;100842.81;1750135;80;21042;-69
2023/01/03 02:07:52;;;;;;;16.42;12.37;;;;;;;4.63;65.89;100847.41;1722664;83;21101;-69
2023/01/03 02:10:34;;;;;;;16.82;13.03;;;;;;;4.68;65.99;100840.69;1728196;80;21867;-69
2023/01/03 02:13:24;;;;;;;12.00;6.25;;;;;;;4.69;66.06;100838.48;1739563;81;21476;-70
2023/01/03 02:16:15;;;;;;;16.57;12.10;;;;;;;4.72;66.20;100825.73;1687167;84;21004;-69
2023/01/03 02:19:06;;;;;;;16.02;11.65;;;;;;;4.73;66.15;100827.44;1763517;81;21004;-69
2023/01/03 02:21:58;;;;;;;9.73;4.80;;;;;;;4.71;66.06;100830.55;1702714;82;21143;-69
2023/01/03 02:25:05;;;;;;;11.55;5.70;;;;;;;4.67;66.16;100822.04;1766556;80;21821;-70
2023/01/03 02:28:01;;;;;;;10.30;5.87;;;;;;;4.61;66.14;100817.98;1724507;80;21604;-71
2023/01/03 02:30:42;;;;;;;11.78;6.15;;;;;;;4.50;66.15;100813.73;1750296;81;21043;-70
2023/01/03 02:33:38;;;;;;;9.50;5.20;;;;;;;4.40;66.16;100808.11;1748310;80;21105;-67
2023/01/03 02:36:10;;;;;;;12.98;5.30;;;;;;;4.31;66.21;100802.05;1740912;82;21027;-69
2023/01/03 02:39:13;;;;;;;18.42;12.68;;;;;;;4.21;66.31;100800.33;1739203;80;21107;-69
2023/01/03 02:45:09;;;;;;;;;;;;;;;4.18;66.44;100797.86;1750155;80;21003;-69
2023/01/03 02:47:53;;;;;;;11.70;4.97;;;;;;;4.22;66.43;100792.91;1718007;82;20194;-69
2023/01/03 02:50:23;;;;;;;16.05;11.83;;;;;;;4.27;66.54;100788.33;1731351;81;21086;-69
2023/01/03 02:52:51;;;;;;;9.38;4.50;;;;;;;4.37;66.63;100794.39;1740462;80;21129;-69
2023/01/03 02:55:25;;;;;;;17.90;12.53;;;;;;;4.43;66.58;100791.50;1764548;81;21035;-68
2023/01/03 02:57:59;;;;;;;13.13;6.87;;;;;;;4.46;66.63;100784.84;1755630;80;21058;-68
2023/01/03 03:00:27;;;;;;;18.27;13.38;;;;;;;4.48;66.69;100785.61;1741759;81;21071;-69
2023/01/03 03:02:59;;;;;;;11.65;6.15;;;;;;;4.48;66.51;100772.58;1776920;78;21138;-69
2023/01/03 03:05:41;;;;;;;14.83;6.85;;;;;;;4.46;66.32;100773.95;1785782;80;21142;-69
2023/01/03 03:08:08;;;;;;;17.52;12.73;;;;;;;4.43;66.17;100779.77;1784904;78;21330;-68
2023/01/03 03:13:30;;;;;;;13.62;7.22;;;;;;;4.40;66.50;100785.13;1768416;80;20996;-69
2023/01/03 03:16:09;;;;;;;13.10;7.22;;;;;;;4.43;66.95;100776.70;1743110;80;21066;-69
2023/01/03 03:18:58;;;;;;;12.85;6.25;;;;;;;4.46;67.36;100780.94;1771592;80;21481;-69
2023/01/03 03:29:55;;;;;;;12.20;7.12;;;;;;;4.72;67.72;100773.59;1767771;79;21026;-70
2023/01/03 03:32:23;;;;;;;18.32;14.55;;;;;;;4.77;67.59;100781.56;1781525;80;21209;-69
2023/01/03 03:34:50;;;;;;;24.02;15.15;;;;;;;4.75;67.40;100782.11;1767158;80;21010;-69
2023/01/03 03:37:18;;;;;;;19.73;15.08;;;;;;;4.75;67.25;100781.27;1770027;80;21579;-69
2023/01/03 03:46:06;;;;;;;13.22;7.40;;;;;;;4.65;67.04;100775.19;1780173;79;21161;-69
2023/01/03 03:51:36;;;;;;;18.50;14.80;;;;;;;4.53;67.20;100768.45;1774050;80;21006;-69
2023/01/03 03:54:07;;;;;;;16.97;13.98;;;;;;;4.51;67.29;100761.17;1734906;82;21521;-69
2023/01/03 03:56:34;;;;;;;11.90;5.15;;;;;;;4.53;67.30;100767.15;1731382;82;21055;-68
2023/01/03 03:59:06;;;;;;;17.50;13.83;;;;;;;4.57;67.02;100767.37;1731909;82;21880;-68
2023/01/03 04:01:33;;;;;;;16.23;12.63;;;;;;;4.60;66.98;100751.12;1729006;80;21063;-68
2023/01/03 04:04:05;;;;;;;11.40;6.15;;;;;;;4.65;67.04;100749.13;1733734;82;21058;-68
2023/01/03 04:06:37;;;;;;;18.15;14.65;;;;;;;4.71;67.03;100747.13;1742997;82;21048;-69
2023/01/03 04:09:04;;;;;;;17.98;13.93;;;;;;;4.71;67.14;100747.13;1764210;80;21103;-68
2023/01/03 04:11:32;;;;;;;19.50;14.90;;;;;;;4.72;67.02;100742.31;1744731;80;21640;-68
2023/01/03 04:13:58;;;;;;;18.23;15.75;;;;;;;4.68;66.87;100737.72;1766366;80;21086;-68
2023/01/03 04:16:25;;;;;;;15.83;6.97;;;;;;;4.64;66.84;100740.94;1757532;79;21111;-68
2023/01/03 04:18:52;;;;;;;23.02;16.35;;;;;;;4.61;66.89;100741.09;1756964;80;21082;-68
2023/01/03 04:21:18;;;;;;;11.20;6.55;;;;;;;4.60;67.40;100726.83;1764735;79;21113;-68
2023/01/03 04:23:45;;;;;;;9.63;4.53;;;;;;;4.75;68.70;100731.73;1780625;79;21273;-68
2023/01/03 04:26:11;;;;;;;15.03;8.23;;;;;;;4.99;69.76;100732.25;1760644;79;21056;-67
2023/01/03 04:28:38;;;;;;;22.17;16.00;;;;;;;5.26;70.86;100728.70;1788040;79;21596;-67
2023/01/03 04:31:04;;;;;;;20.15;14.85;;;;;;;5.50;71.60;100720.50;1789119;79;21081;-67
2023/01/03 04:33:31;;;;;;;18.65;15.70;;;;;;;5.71;72.08;100720.62;1779101;80;21054;-68
2023/01/03 04:35:58;;;;;;;18.98;15.48;;;;;;;5.89;72.40;100721.86;1765032;79;21856;-68
2023/01/03 04:38:24;;;;;;;21.33;16.97;;;;;;;5.96;72.53;100716.70;1790105;79;21067;-68
2023/01/03 04:40:51;;;;;;;20.30;15.95;;;;;;;6.01;72.75;100711.23;1712710;82;21094;-68
2023/01/03 04:46:04;;;;;;;12.60;6.27;;;;;;;6.21;72.65;100715.34;1730952;82;21071;-68
2023/01/03 04:48:31;;;;;;;19.60;15.40;;;;;;;6.31;72.60;100717.81;1765823;79;21877;-70
2023/01/03 04:50:58;;;;;;;19.75;15.68;;;;;;;6.35;72.70;100712.77;1780302;80;21086;-69
2023/01/03 04:53:26;;;;;;;21.45;17.35;;;;;;;6.38;72.87;100704.76;1776180;80;21008;-69
2023/01/03 04:55:55;;;;;;;20.40;16.30;;;;;;;6.43;72.90;100704.50;1765883;80;21166;-70
2023/01/03 04:58:22;;;;;;;14.85;6.45;;;;;;;6.45;72.67;100710.00;1774318;79;21011;-69
2023/01/03 05:03:39;;;;;;;17.60;13.62;;;;;;;6.51;72.95;100710.14;1791519;78;22644;-70
2023/01/03 05:07:00;;;;;;;21.37;15.93;;;;;;;6.61;72.93;100709.14;1795633;78;21998;-70
2023/01/03 05:09:26;;;;;;;20.02;14.63;;;;;;;6.75;72.35;100706.55;1778857;80;21641;-70
2023/01/03 05:11:53;;;;;;;19.77;15.08;;;;;;;6.78;72.23;100713.38;1776781;80;21143;-70
2023/01/03 05:14:20;;;;;;;21.55;16.48;;;;;;;6.76;72.18;100709.98;1769936;80;21547;-70
2023/01/03 05:16:46;;;;;;;20.57;14.90;;;;;;;6.75;72.25;100712.25;1765716;80;21042;-70
2023/01/03 05:19:13;;;;;;;17.67;13.95;;;;;;;6.75;72.24;100705.71;1772495;80;21553;-69
2023/01/03 05:27:09;;;;;;;18.27;13.40;;;;;;;6.94;71.70;100692.38;1762064;80;21055;-72
2023/01/03 05:29:36;;;;;;;16.42;13.65;;;;;;;6.92;71.11;100692.46;1710602;80;21101;-69
2023/01/03 05:32:04;;;;;;;17.50;13.48;;;;;;;6.84;70.67;100700.78;1776589;80;21082;-70
2023/01/03 05:34:32;;;;;;;19.10;13.88;;;;;;;6.77;70.40;100702.05;1776196;80;21042;-69
2023/01/03 05:36:58;;;;;;;18.48;14.00;;;;;;;6.75;70.54;100700.00;1772564;80;22293;-69
2023/01/03 05:39:26;;;;;;;18.37;14.38;;;;;;;6.69;70.22;100697.30;1768726;80;21090;-69
2023/01/03 05:41:59;;;;;;;18.30;12.73;;;;;;;6.62;69.95;100692.50;1777299;80;21018;-71
2023/01/03 05:44:29;;;;;;;16.25;12.47;;;;;;;6.55;69.72;100693.33;1778468;80;21066;-71
2023/01/03 05:46:57;;;;;;;17.05;13.00;;;;;;;6.54;69.35;100698.64;1776764;80;21073;-68
2023/01/03 05:49:24;;;;;;;14.07;12.33;;;;;;;6.49;69.05;100697.63;1783404;80;21589;-69
2023/01/03 05:51:50;;;;;;;17.25;12.30;;;;;;;6.45;69.00;100693.01;1771125;80;21025;-69
2023/01/03 05:54:19;;;;;;;17.23;13.60;;;;;;;6.37;69.11;100687.85;1762230;80;21030;-68
2023/01/03 05:56:45;;;;;;;17.27;13.60;;;;;;;6.36;69.67;100693.56;1737291;81;20999;-69
2023/01/03 05:59:12;;;;;;;17.60;14.35;;;;;;;6.39;70.09;100697.31;1744166;81;21063;-71
2023/01/03 06:01:39;;;;;;;17.10;13.22;;;;;;;6.43;70.23;100699.27;1724424;82;21263;-71
2023/01/03 06:04:06;;;;;;;15.80;12.58;;;;;;;6.43;70.01;100702.72;1724385;82;21042;-72
2023/01/03 06:06:32;;;;;;;14.23;10.75;;;;;;;6.48;69.65;100705.91;1708145;82;21051;-71
2023/01/03 06:08:59;;;;;;;15.65;12.82;;;;;;;6.48;69.30;100708.52;1698041;83;21770;-74
2023/01/03 06:11:27;;;;;;;15.38;12.37;;;;;;;6.47;69.05;100705.55;1708968;83;21133;-71
2023/01/03 06:13:54;;;;;;;17.62;14.20;;;;;;;6.42;68.88;100705.42;1708333;83;21287;-71
2023/01/03 06:19:06;;;;;;;14.03;5.93;;;;;;;6.34;68.78;100699.34;1715116;83;21114;-71
2023/01/03 06:21:33;;;;;;;17.50;13.60;;;;;;;6.28;68.67;100707.52;1713973;83;21150;-71
2023/01/03 06:24:00;;;;;;;17.65;13.65;;;;;;;6.22;68.49;100705.25;1707873;83;21024;-71
2023/01/03 06:26:27;;;;;;;16.65;13.28;;;;;;;6.11;68.27;100708.01;1697744;83;21257;-70
2023/01/03 06:28:54;;;;;;;18.30;13.32;;;;;;;6.08;68.37;100702.95;1711907;83;21469;-70
2023/01/03 06:31:20;;;;;;;18.87;13.78;;;;;;;6.10;67.93;100711.56;1761564;80;21066;-69
2023/01/03 06:33:48;;;;;;;18.00;13.80;;;;;;;6.08;67.56;100709.95;1770811;80;21034;-69
2023/01/03 06:36:18;;;;;;;15.78;13.13;;;;;;;6.04;67.60;100710.59;1764883;80;21038;-69
2023/01/03 06:38:44;;;;;;;21.80;14.40;;;;;;;6.00;67.67;100717.38;1771304;80;21199;-69
2023/01/03 06:41:13;;;;;;;11.88;6.97;;;;;;;5.97;68.13;100713.17;1770647;80;21110;-71
2023/01/03 06:43:40;;;;;;;20.25;14.07;;;;;;;6.01;68.45;100715.98;1771999;80;21098;-72
2023/01/03 06:54:29;;;;;;;12.07;5.85;;;;;;;6.39;69.57;100700.36;1749316;80;21063;-71
2023/01/03 06:56:56;;;;;;;20.60;14.23;;;;;;;6.51;69.65;100703.12;1702370;82;21967;-71
2023/01/03 06:59:23;;;;;;;18.20;14.53;;;;;;;6.56;69.52;100712.48;1751935;80;21617;-73
2023/01/03 07:01:50;;;;;;;17.17;13.55;;;;;;;6.53;69.29;100719.20;1766635;80;21019;-72
2023/01/03 07:04:17;;;;;;;17.95;13.93;;;;;;;6.51;69.32;100712.27;1766952;80;21247;-71
2023/01/03 07:06:43;;;;;;;19.27;13.75;;;;;;;6.56;69.35;100713.80;1767350;80;21145;-73
2023/01/03 07:09:12;;;;;;;19.92;14.33;;;;;;;6.54;68.92;100704.73;1753415;80;21059;-72
2023/01/03 07:11:39;;;;;;;18.50;14.33;;;;;;;6.60;69.01;100716.13;1739351;80;21019;-71
2023/01/03 07:14:07;;;;;;;18.75;15.45;;;;;;;6.70;69.17;100735.57;1746807;80;21027;-74
2023/01/03 07:16:36;;;;;;;20.10;14.50;;;;;;;6.80;69.64;100730.66;1746797;80;21807;-71
2023/01/03 07:19:04;;;;;;;18.32;14.43;;;;;;;6.90;70.25;100736.67;1749609;80;22310;-70
2023/01/03 07:21:32;;;;;;;17.92;13.10;;;;;;;6.98;70.68;100734.44;1747225;80;21510;-70
2023/01/03 07:24:00;;;;;;;17.92;14.33;;;;;;;7.07;70.96;100746.96;1745406;80;21042;-70
2023/01/03 07:26:32;;;;;;;16.23;12.90;;;;;;;7.20;70.97;100746.61;1747004;80;21087;-70
2023/01/03 07:28:57;;;;;;;17.25;12.68;;;;;;;7.28;71.00;100744.84;1746509;80;21172;-71
2023/01/03 07:31:24;;;;;;;16.73;13.48;;;;;;;7.36;71.15;100745.23;1751554;80;21346;-71
2023/01/03 07:33:51;;;;;;;17.32;13.13;;;;;;;7.39;71.45;100750.73;1741069;80;21007;-73
2023/01/03 07:36:19;;;;;;;19.15;13.58;;;;;;;7.40;71.59;100755.05;1763062;80;21568;-70
2023/01/03 07:38:46;;;;;;;17.02;14.15;;;;;;;7.41;71.79;100756.70;1763461;80;21079;-71
2023/01/03 07:41:13;;;;;;;18.30;13.35;;;;;;;7.46;71.87;100745.96;1743427;80;21235;-70
2023/01/03 07:43:43;;;;;;;18.73;13.20;;;;;;;7.57;71.79;100756.63;1757207;80;21062;-70
2023/01/03 07:46:22;;;;;;;20.15;13.68;;;;;;;7.68;71.79;100754.64;1772157;80;21051;-69
2023/01/03 07:48:51;;;;;;;15.25;13.03;;;;;;;7.75;71.74;100753.31;1773566;80;21074;-69
2023/01/03 07:51:20;;;;;;;16.75;13.40;;;;;;;7.79;71.85;100752.20;1756394;80;21051;-69
2023/01/03 07:53:51;;;;;;;16.35;12.80;;;;;;;7.81;71.90;100755.08;1757201;80;22810;-70
2023/01/03 07:56:19;;;;;;;16.05;12.43;;;;;;;7.88;71.89;100759.47;1753736;80;21105;-69
2023/01/03 07:58:47;;;;;;;18.82;13.13;;;;;;;7.99;71.70;100762.27;1706414;84;21067;-69
2023/01/03 08:01:22;;;;;;;19.07;12.90;;;;;;;8.11;71.52;100752.78;1772286;80;21488;-68
2023/01/03 08:03:48;;;;;;;17.98;13.60;;;;;;;8.22;71.48;100752.56;1771150;80;21177;-70
2023/01/03 08:06:19;;;;;;;16.87;13.05;;;;;;;8.29;71.44;100753.39;1751790;80;22152;-69
2023/01/03 08:14:10;;;;;;;17.92;13.70;;;;;;;8.46;71.46;100750.19;1753463;80;21585;-69
2023/01/03 08:16:37;;;;;;;16.42;13.20;;;;;;;8.62;71.27;100739.03;1747889;80;21035;-70
2023/01/03 08:19:03;;;;;;;19.10;15.50;;;;;;;8.71;71.23;100741.06;1742757;82;21241;-68
2023/01/03 08:21:30;;;;;;;21.15;14.98;;;;;;;8.84;71.30;100736.30;1749298;80;21694;-69
2023/01/03 08:23:56;;;;;;;24.00;15.28;;;;;;;8.92;71.29;100732.69;1747884;80;21488;-69
2023/01/03 08:26:22;;;;;;;20.52;15.63;;;;;;;8.99;71.28;100731.80;1697479;83;21589;-69
2023/01/03 08:28:49;;;;;;;18.85;15.15;;;;;;;9.04;71.25;100726.59;1752793;80;21587;-69
2023/01/03 08:31:19;;;;;;;21.73;16.07;;;;;;;9.15;71.14;100718.48;1678165;83;21940;-69
2023/01/03 08:33:54;;;;;;;24.25;17.80;;;;;;;9.29;70.76;100738.05;1706624;83;21071;-69
2023/01/03 08:36:21;;;;;;;22.85;16.65;;;;;;;9.41;70.58;100729.80;1700821;83;21058;-69
2023/01/03 08:38:56;;;;;;;18.62;13.83;;;;;;;9.57;70.39;100739.60;1700954;83;21051;-70
2023/01/03 08:41:24;;;;;;;17.67;14.40;;;;;;;9.61;70.17;100734.48;1701080;83;21344;-69
2023/01/03 08:43:51;;;;;;;18.42;14.73;;;;;;;9.67;69.99;100738.48;1698417;83;21258;-70
2023/01/03 08:46:19;;;;;;;15.78;12.40;;;;;;;9.69;69.81;100747.09;1700266;83;21028;-69
2023/01/03 08:48:45;;;;;;;17.00;12.13;;;;;;;9.74;69.70;100734.47;1759905;80;21090;-69
2023/01/03 08:51:12;;;;;;;15.83;11.53;;;;;;;9.86;69.31;100740.64;1762304;80;21020;-73
2023/01/03 08:53:39;;;;;;;15.55;11.38;;;;;;;9.98;68.81;100739.75;1764489;80;21536;-70
2023/01/03 08:56:07;;;;;;;17.05;12.10;;;;;;;10.03;68.38;100740.74;1757502;80;21257;-70
2023/01/03 08:58:33;;;;;;;19.25;11.50;;;;;;;10.01;67.95;100724.25;1756244;80;21753;-70
2023/01/03 09:01:02;;;;;;;15.80;11.45;;;;;;;10.00;67.90;100727.81;1757413;80;21043;-70
2023/01/03 09:03:28;;;;;;;17.12;11.90;;;;;;;9.96;68.01;100743.45;1765038;80;21040;-69
2023/01/03 09:06:01;;;;;;;13.35;10.68;;;;;;;10.00;67.83;100726.50;1761129;80;21615;-69
2023/01/03 09:08:32;;;;;;;14.98;11.65;;;;;;;10.11;67.59;100725.25;1780687;80;21243;-70
2023/01/03 09:11:05;;;;;;;17.77;11.28;;;;;;;10.19;67.13;100729.48;1774911;80;21019;-69
2023/01/03 09:13:32;;;;;;;14.33;10.95;;;;;;;10.23;67.15;100729.61;1750718;82;21078;-69
2023/01/03 09:16:05;;;;;;;16.93;12.10;;;;;;;10.26;66.91;100730.36;1773349;80;21027;-69
2023/01/03 09:18:33;;;;;;;14.68;11.28;;;;;;;10.28;66.97;100720.56;1780832;80;21034;-70
2023/01/03 09:21:00;;;;;;;14.10;10.75;;;;;;;10.30;66.82;100727.38;1763807;80;21923;-69
2023/01/03 09:23:27;;;;;;;14.70;11.05;;;;;;;10.36;66.64;100719.56;1750559;82;21018;-69
2023/01/03 09:25:53;;;;;;;13.95;11.08;;;;;;;10.45;66.18;100720.17;1756454;80;21165;-69
2023/01/03 09:28:20;;;;;;;12.20;10.50;;;;;;;10.55;66.01;100720.34;1763475;80;21539;-69
2023/01/03 09:30:46;;;;;;;17.55;11.80;;;;;;;10.57;65.85;100722.37;1760200;80;21565;-69
2023/01/03 09:33:13;;;;;;;15.72;11.15;;;;;;;10.58;65.85;100723.57;1755498;80;21217;-69
2023/01/03 09:35:40;;;;;;;18.05;11.90;;;;;;;10.60;65.84;100726.09;1766328;80;21034;-68
2023/01/03 09:38:09;;;;;;;15.20;10.90;;;;;;;10.65;65.68;100720.49;1775987;80;21083;-69
2023/01/03 09:40:43;;;;;;;13.75;10.63;;;;;;;10.75;65.39;100723.62;1769409;80;21082;-69
2023/01/03 09:43:14;;;;;;;12.98;9.93;;;;;;;10.82;65.31;100717.41;1762496;80;21110;-69
2023/01/03 09:45:50;;;;;;;16.40;11.40;;;;;;;10.88;65.35;100730.12;1769012;80;21114;-69
2023/01/03 09:48:22;;;;;;;19.17;12.28;;;;;;;10.92;64.96;100726.78;1752243;80;21141;-69
2023/01/03 09:50:48;;;;;;;13.43;10.43;;;;;;;10.96;64.80;100721.63;1761408;80;21105;-69
2023/01/03 10:05:20;;;;;;;15.80;11.63;;;;;;;11.27;63.54;100711.38;1760051;80;21548;-69
2023/01/03 10:08:08;;;;;;;16.25;11.97;;;;;;;11.25;63.60;100709.35;1759774;80;21106;-68
2023/01/03 10:11:00;;;;;;;17.70;11.45;;;;;;;11.25;63.62;100702.77;1779655;80;21090;-69
2023/01/03 10:13:51;;;;;;;17.45;11.33;;;;;;;11.26;63.63;100697.84;1768816;80;21181;-69
2023/01/03 10:16:39;;;;;;;14.43;10.63;;;;;;;11.30;63.35;100713.30;1766501;80;21097;-69
2023/01/03 10:19:40;;;;;;;15.65;11.15;;;;;;;11.38;63.34;100699.99;1781445;80;21094;-70
2023/01/03 10:22:17;;;;;;;17.65;11.20;;;;;;;11.43;63.09;100696.52;1779084;80;21025;-71
2023/01/03 10:24:50;;;;;;;13.18;10.88;;;;;;;11.46;63.11;100682.62;1781648;80;21085;-70
2023/01/03 10:27:22;;;;;;;15.85;10.90;;;;;;;11.50;63.23;100688.02;1780857;80;21166;-69
2023/01/03 10:29:53;;;;;;;16.00;10.48;;;;;;;11.52;62.91;100682.63;1750436;80;22382;-70
2023/01/03 10:33:00;;;;;;;14.33;10.38;;;;;;;11.54;62.96;100680.70;1752160;80;21015;-69
2023/01/03 10:35:30;;;;;;;12.80;9.93;;;;;;;11.61;62.86;100680.56;1758147;80;21078;-69
2023/01/03 10:37:57;;;;;;;16.37;10.85;;;;;;;11.75;62.44;100689.17;1763580;80;21059;-69
2023/01/03 10:40:40;;;;;;;16.10;10.95;;;;;;;11.83;62.24;100710.48;1762804;80;21946;-69
2023/01/03 10:43:30;;;;;;;13.98;10.18;;;;;;;11.85;62.18;100696.70;1781405;80;21059;-70
2023/01/03 10:46:07;;;;;;;14.10;9.68;;;;;;;11.87;62.15;100684.25;1773282;80;21120;-69
2023/01/03 10:48:46;;;;;;;17.40;11.90;;;;;;;11.90;62.03;100695.84;1750632;82;21030;-68
2023/01/03 10:51:35;;;;;;;17.50;10.98;;;;;;;11.93;61.90;100696.12;1761617;80;21122;-71
2023/01/03 10:54:12;;;;;;;14.45;10.10;;;;;;;12.01;61.80;100696.34;1782908;80;21197;-69
2023/01/03 10:56:39;;;;;;;14.30;9.43;;;;;;;12.14;61.60;100708.03;1761009;80;21098;-68
2023/01/03 10:59:22;;;;;;;13.93;9.90;;;;;;;12.27;61.02;100706.06;1754337;80;21031;-69
2023/01/03 11:02:01;;;;;;;13.88;10.00;;;;;;;12.35;60.72;100719.47;1689579;82;21099;-70
2023/01/03 11:04:30;;;;;;;15.90;10.43;;;;;;;12.38;60.69;100715.76;1754092;80;21098;-69
2023/01/03 11:07:11;;;;;;;13.43;10.28;;;;;;;12.38;60.60;100709.98;1776965;80;21230;-68
2023/01/03 11:09:56;;;;;;;15.88;10.65;;;;;;;12.38;60.62;100718.40;1753037;80;21034;-70
2023/01/03 11:12:43;;;;;;;18.12;10.48;;;;;;;12.34;60.70;100719.59;1768057;80;21917;-68
2023/01/03 11:15:26;;;;;;;14.13;9.23;;;;;;;12.31;60.83;100727.30;1755850;81;21004;-70
2023/01/03 11:18:06;;;;;;;15.03;9.05;;;;;;;12.38;60.99;100732.91;1735667;81;21070;-70
2023/01/03 11:21:07;;;;;;;14.47;9.30;;;;;;;12.48;60.27;100727.72;1779572;80;21164;-70
2023/01/03 11:24:13;;;;;;;14.38;10.68;;;;;;;12.47;60.14;100716.30;1763511;80;21046;-70
2023/01/03 11:26:54;;;;;;;13.55;10.78;;;;;;;12.43;60.14;100723.64;1765302;80;21089;-72
2023/01/03 11:29:47;;;;;;;12.45;9.35;;;;;;;12.39;60.18;100730.61;1773505;80;21107;-71
2023/01/03 11:32:37;;;;;;;16.85;10.28;;;;;;;12.35;60.38;100727.39;1773913;80;21026;-69
2023/01/03 11:35:21;;;;;;;13.60;9.20;;;;;;;12.36;60.44;100730.89;1776213;80;21251;-69
2023/01/03 11:38:18;;;;;;;13.45;9.80;;;;;;;12.38;60.33;100750.89;1781848;80;21085;-71
2023/01/03 11:41:26;;;;;;;12.98;9.55;;;;;;;12.37;60.45;100729.91;1772700;80;21093;-69
2023/01/03 11:44:37;;;;;;;14.85;10.93;;;;;;;12.38;60.46;100741.66;1710993;80;21073;-69
2023/01/03 11:47:37;;;;;;;13.15;9.90;;;;;;;12.36;60.60;100746.23;1734014;82;21098;-70
2023/01/03 11:50:45;;;;;;;16.95;10.85;;;;;;;12.35;60.63;100741.91;1748074;82;21152;-70
2023/01/03 11:53:37;;;;;;;15.30;10.43;;;;;;;12.44;60.56;100743.80;1739044;82;21102;-70
2023/01/03 11:56:30;;;;;;;14.80;10.03;;;;;;;12.58;60.01;100749.25;1736283;82;21086;-70
2023/01/03 11:59:10;;;;;;;12.85;9.90;;;;;;;12.58;59.98;100749.75;1747297;82;21039;-70
2023/01/03 12:02:01;;;;;;;11.88;8.90;;;;;;;12.60;59.89;100757.05;1750151;82;21042;-69
2023/01/03 12:08:00;;;;;;;13.18;10.48;;;;;;;12.52;60.21;100761.63;1795091;78;22144;-70
2023/01/03 12:10:50;;;;;;;16.20;9.58;;;;;;;12.62;59.62;100755.97;1717773;81;21061;-71
2023/01/03 12:13:26;;;;;;;12.78;9.70;;;;;;;12.65;59.61;100773.34;1736458;81;21219;-68
2023/01/03 12:16:04;;;;;;;14.73;9.58;;;;;;;12.64;59.72;100765.92;1706684;81;20994;-71
2023/01/03 12:19:04;;;;;;;13.20;9.23;;;;;;;12.61;59.58;100760.06;1702353;82;20987;-68
2023/01/03 12:21:36;;;;;;;12.53;9.38;;;;;;;12.60;59.60;100755.73;1682981;84;21134;-70
2023/01/03 12:24:14;;;;;;;14.28;10.08;;;;;;;12.60;59.49;100755.73;1714220;82;21053;-70
2023/01/03 12:26:42;;;;;;;13.55;10.40;;;;;;;12.57;59.61;100754.66;1702906;82;21272;-70
2023/01/03 12:29:20;;;;;;;13.22;9.30;;;;;;;12.54;59.57;100749.63;1705456;82;21065;-70
2023/01/03 12:31:52;;;;;;;14.40;9.03;;;;;;;12.52;59.64;100745.80;1709822;82;21083;-69
2023/01/03 12:34:44;;;;;;;14.03;9.75;;;;;;;12.52;59.72;100737.88;1708101;82;21107;-69
2023/01/03 12:37:25;;;;;;;13.08;9.25;;;;;;;12.54;59.70;100744.34;1687496;82;21074;-69
2023/01/03 12:40:02;;;;;;;16.30;8.88;;;;;;;12.52;59.60;100741.00;1708529;82;21273;-69
2023/01/03 12:42:45;;;;;;;14.75;9.90;;;;;;;12.55;59.36;100742.91;1718168;82;21050;-69
2023/01/03 12:45:42;;;;;;;11.95;9.23;;;;;;;12.64;59.13;100742.62;1699505;83;21039;-70
2023/01/03 12:48:49;;;;;;;12.75;10.08;;;;;;;12.70;58.88;100737.33;1704732;83;21185;-70
2023/01/03 12:51:19;;;;;;;12.60;8.93;;;;;;;12.79;58.69;100740.05;1705442;83;21100;-69
2023/01/03 12:54:06;;;;;;;12.05;8.58;;;;;;;12.78;58.72;100746.77;1706316;83;21231;-70
2023/01/03 12:57:04;;;;;;;12.73;8.98;;;;;;;12.74;58.72;100742.23;1702536;83;21694;-69
2023/01/03 12:59:52;;;;;;;12.47;8.93;;;;;;;12.90;58.71;100748.87;1708899;83;21023;-70